Time;durP1;ratioP1;P1;durP2;ratioP2;P2;SDS_P1;SDS_P2;PMS_P1;PMS_P2;Temp;Humidity;BMP_temperature;BMP_pressure;BME280_temperature;BME280_humidity;BME280_pressure;Samples;Min_cycle;Max_cycle;Signal;HPM_P1;HPM_P2
2022/04/25 00:00:53;;;;;;;;;;;;;;;18.80;59.79;94158.28;4880268;29;20030;-79
2022/04/25 00:03:19;;;;;;;;;;;;;;;18.75;59.77;94155.34;4880134;29;19928;-79
2022/04/25 00:05:47;;;;;;;;;;;;;;;18.68;59.99;94155.34;4880351;29;19927;-79
2022/04/25 00:08:14;;;;;;;;;;;;;;;18.43;61.24;94154.97;4879919;29;19935;-79
2022/04/25 00:10:40;;;;;;;;;;;;;;;18.49;61.11;94164.81;4878185;29;19935;-80
2022/04/25 00:13:07;;;;;;;;;;;;;;;18.01;63.10;94155.13;4880375;29;20300;-79
2022/04/25 00:15:34;;;;;;;;;;;;;;;17.95;63.47;94159.38;4880036;29;19928;-79
2022/04/25 00:18:00;;;;;;;;;;;;;;;18.02;63.05;94162.06;4880029;29;19927;-79
2022/04/25 00:20:27;;;;;;;;;;;;;;;18.04;62.83;94157.38;4879662;29;19928;-79
2022/04/25 00:22:55;;;;;;;;;;;;;;;18.04;62.92;94158.19;4879942;29;19932;-79
2022/04/25 00:25:22;;;;;;;;;;;;;;;17.96;62.86;94155.69;4877348;29;19927;-80
2022/04/25 00:27:48;;;;;;;;;;;;;;;17.98;63.16;94161.63;4879521;29;20276;-80
2022/04/25 00:30:15;;;;;;;;;;;;;;;17.94;63.02;94166.50;4880384;29;19935;-80
2022/04/25 00:32:41;;;;;;;;;;;;;;;17.91;63.45;94174.84;4883454;29;19927;-80
2022/04/25 00:35:08;;;;;;;;;;;;;;;17.90;63.79;94178.50;4883061;29;19928;-79
2022/04/25 00:37:35;;;;;;;;;;;;;;;17.81;63.44;94182.31;4883250;29;19928;-79
2022/04/25 00:40:03;;;;;;;;;;;;;;;17.76;63.54;94186.56;4883065;29;19928;-80
2022/04/25 00:42:30;;;;;;;;;;;;;;;17.83;63.84;94182.94;4883307;29;19935;-80
2022/04/25 00:44:59;;;;;;;;;;;;;;;17.89;63.90;94182.16;4883335;29;19935;-80
2022/04/25 00:47:25;;;;;;;;;;;;;;;17.91;64.58;94195.25;4865758;29;20006;-79
2022/04/25 00:49:52;;;;;;;;;;;;;;;17.89;65.57;94192.78;4883087;29;20376;-80
2022/04/25 00:52:19;;;;;;;;;;;;;;;17.94;65.71;94190.41;4882893;29;20300;-79
2022/04/25 00:54:46;;;;;;;;;;;;;;;17.95;66.07;94185.91;4882891;29;20344;-79
2022/04/25 00:57:14;;;;;;;;;;;;;;;17.97;65.99;94183.06;4883004;29;20364;-80
2022/04/25 00:59:41;;;;;;;;;;;;;;;17.98;66.12;94182.06;4883300;29;20275;-79
2022/04/25 01:02:08;;;;;;;;;;;;;;;17.94;66.22;94173.66;4882765;29;19934;-79
2022/04/25 01:04:34;;;;;;;;;;;;;;;17.93;66.38;94172.84;4882693;29;19927;-79
2022/04/25 01:07:01;;;;;;;;;;;;;;;17.94;65.91;94173.66;4882831;29;19928;-79
2022/04/25 01:09:27;;;;;;;;;;;;;;;17.92;65.58;94183.63;4882428;29;19927;-79
2022/04/25 01:11:54;;;;;;;;;;;;;;;17.91;65.02;94177.50;4882651;29;19928;-80
2022/04/25 01:14:22;;;;;;;;;;;;;;;17.86;64.90;94173.78;4882450;29;20404;-80
2022/04/25 01:16:49;;;;;;;;;;;;;;;17.82;64.99;94164.56;4882447;29;19927;-79
2022/04/25 01:19:15;;;;;;;;;;;;;;;17.70;64.74;94161.63;4882956;29;19935;-80
2022/04/25 01:21:43;;;;;;;;;;;;;;;17.46;65.19;94154.00;4882836;29;19927;-79
2022/04/25 01:29:39;;;;;;;;;;;;;;;17.10;66.26;94133.69;4882405;29;19935;-79
2022/04/25 01:32:07;;;;;;;;;;;;;;;17.06;66.46;94131.56;4882432;29;20027;-79
2022/04/25 01:34:36;;;;;;;;;;;;;;;17.06;65.97;94121.81;4882373;29;19928;-80
2022/04/25 01:37:05;;;;;;;;;;;;;;;16.75;67.48;94121.25;4882087;29;20004;-80
2022/04/25 01:39:33;;;;;;;;;;;;;;;16.83;67.67;94121.16;4882209;29;20268;-79
2022/04/25 01:41:59;;;;;;;;;;;;;;;16.64;67.50;94112.75;4881303;29;19932;-79
2022/04/25 01:44:26;;;;;;;;;;;;;;;16.64;68.17;94112.75;4880200;29;20311;-79
2022/04/25 01:46:52;;;;;;;;;;;;;;;16.80;67.56;94109.09;4882018;29;19928;-79
2022/04/25 01:49:19;;;;;;;;;;;;;;;16.86;66.83;94104.88;4882050;29;19928;-79
2022/04/25 01:51:45;;;;;;;;;;;;;;;16.87;67.52;94102.03;4882135;29;20521;-79
2022/04/25 01:54:12;;;;;;;;;;;;;;;16.79;67.72;94093.41;4881430;29;19928;-79
2022/04/25 01:56:40;;;;;;;;;;;;;;;16.89;67.16;94104.50;4881608;29;19950;-79
2022/04/25 01:59:07;;;;;;;;;;;;;;;16.84;67.12;94094.47;4881432;29;20280;-79
2022/04/25 02:01:33;;;;;;;;;;;;;;;16.94;66.97;94092.31;4881947;29;19928;-79
2022/04/25 02:04:00;;;;;;;;;;;;;;;16.97;66.93;94096.41;4881937;29;19928;-80
2022/04/25 02:06:27;;;;;;;;;;;;;;;16.91;66.71;94097.19;4881610;29;20292;-79
2022/04/25 02:08:55;;;;;;;;;;;;;;;16.88;67.21;94100.22;4881443;29;19927;-79
2022/04/25 02:11:21;;;;;;;;;;;;;;;16.82;67.02;94090.38;4881911;29;19932;-79
2022/04/25 02:13:51;;;;;;;;;;;;;;;16.84;66.78;94083.03;4881460;29;19934;-80
2022/04/25 02:16:18;;;;;;;;;;;;;;;16.64;67.80;94078.31;4881466;29;19935;-80
2022/04/25 02:18:44;;;;;;;;;;;;;;;16.59;67.82;94072.75;4881288;29;19928;-79
2022/04/25 02:21:11;;;;;;;;;;;;;;;16.56;68.05;94082.91;4879462;29;20388;-79
2022/04/25 02:23:38;;;;;;;;;;;;;;;16.63;68.46;94083.78;4881216;29;19987;-79
2022/04/25 02:26:05;;;;;;;;;;;;;;;16.60;68.21;94090.28;4881503;29;19928;-79
2022/04/25 02:28:31;;;;;;;;;;;;;;;16.67;68.47;94085.09;4880836;29;19934;-79
2022/04/25 02:30:59;;;;;;;;;;;;;;;16.67;68.58;94083.25;4880933;29;20287;-79
2022/04/25 02:33:27;;;;;;;;;;;;;;;16.61;68.19;94083.97;4881423;29;19932;-79
2022/04/25 02:35:54;;;;;;;;;;;;;;;16.64;68.37;94088.91;4881231;29;19934;-79
2022/04/25 02:38:21;;;;;;;;;;;;;;;16.60;68.36;94087.63;4881198;29;19983;-79
2022/04/25 02:41:04;;;;;;;;;;;;;;;16.62;68.94;94087.47;4881190;29;19935;-79
2022/04/25 02:43:31;;;;;;;;;;;;;;;16.65;68.79;94101.16;4879623;29;19935;-79
2022/04/25 02:45:57;;;;;;;;;;;;;;;16.58;68.59;94100.25;4880820;29;19932;-80
2022/04/25 02:48:25;;;;;;;;;;;;;;;16.56;68.53;94098.81;4881368;29;19928;-79
2022/04/25 02:50:52;;;;;;;;;;;;;;;16.41;69.12;94098.81;4881248;29;19986;-79
2022/04/25 02:53:19;;;;;;;;;;;;;;;16.31;68.99;94096.47;4881174;29;19934;-79
2022/04/25 02:55:45;;;;;;;;;;;;;;;16.23;69.44;94093.09;4880999;29;19934;-80
2022/04/25 02:58:12;;;;;;;;;;;;;;;16.19;70.07;94089.16;4880670;29;19935;-79
2022/04/25 03:00:40;;;;;;;;;;;;;;;16.15;69.61;94078.09;4863555;29;19967;-79
2022/04/25 03:03:06;;;;;;;;;;;;;;;16.19;69.30;94070.63;4880698;29;20348;-79
2022/04/25 03:05:34;;;;;;;;;;;;;;;16.11;70.10;94069.72;4878695;29;19951;-79
2022/04/25 03:08:01;;;;;;;;;;;;;;;16.20;70.03;94061.69;4878605;29;19927;-79
2022/04/25 03:10:27;;;;;;;;;;;;;;;16.18;69.51;94053.09;4881046;29;19935;-79
2022/04/25 03:12:54;;;;;;;;;;;;;;;16.20;69.45;94045.81;4880927;29;19928;-79
2022/04/25 03:15:21;;;;;;;;;;;;;;;16.24;69.81;94062.97;4880386;29;19927;-79
2022/04/25 03:17:47;;;;;;;;;;;;;;;16.26;69.94;94064.44;4880486;29;19956;-79
2022/04/25 03:20:14;;;;;;;;;;;;;;;16.24;69.39;94070.91;4880447;29;20025;-79
2022/04/25 03:22:42;;;;;;;;;;;;;;;16.24;69.23;94070.91;4880804;29;19928;-79
2022/04/25 03:25:08;;;;;;;;;;;;;;;16.20;69.20;94067.00;4880390;29;19928;-79
2022/04/25 03:27:35;;;;;;;;;;;;;;;16.21;69.14;94058.03;4880201;29;20383;-79
2022/04/25 03:30:02;;;;;;;;;;;;;;;16.21;69.43;94060.69;4894527;29;19934;-79
2022/04/25 03:32:28;;;;;;;;;;;;;;;16.24;68.83;94068.25;4899029;29;19934;-85
2022/04/25 03:34:55;;;;;;;;;;;;;;;16.26;72.55;94076.84;4898727;29;19927;-84
2022/04/25 03:37:23;;;;;;;;;;;;;;;16.30;72.53;94078.09;4898886;29;19928;-83
2022/04/25 03:39:51;;;;;;;;;;;;;;;16.32;71.56;94081.38;4898998;29;19998;-84
2022/04/25 03:42:18;;;;;;;;;;;;;;;16.24;69.51;94073.56;4899041;29;19928;-87
2022/04/25 03:44:45;;;;;;;;;;;;;;;16.00;69.90;94067.53;4899031;29;19954;-88
2022/04/25 03:47:11;;;;;;;;;;;;;;;15.81;70.90;94073.38;4899054;29;20015;-87
2022/04/25 03:49:38;;;;;;;;;;;;;;;15.75;71.18;94074.09;4881724;29;19928;-85
2022/04/25 03:52:05;;;;;;;;;;;;;;;15.70;71.12;94092.34;4898802;29;19935;-83
2022/04/25 03:57:17;;;;;;;;;;;;;;;15.41;72.74;94104.47;4897980;29;19975;-84
2022/04/25 03:59:43;;;;;;;;;;;;;;;15.49;73.16;94101.75;4898693;29;19927;-84
2022/04/25 04:02:10;;;;;;;;;;;;;;;15.51;72.67;94106.88;4898432;29;19997;-83
2022/04/25 04:04:37;;;;;;;;;;;;;;;15.60;72.76;94105.00;4898499;29;19927;-83
2022/04/25 04:07:03;;;;;;;;;;;;;;;15.50;73.00;94105.22;4901209;29;19975;-85
2022/04/25 04:09:49;;;;;;;;;;;;;;;15.66;72.31;94105.13;4902261;29;20395;-83
2022/04/25 04:12:17;;;;;;;;;;;;;;;15.76;71.80;94113.59;4902115;29;19927;-86
2022/04/25 04:14:44;;;;;;;;;;;;;;;15.83;71.88;94123.47;4902878;29;19927;-85
2022/04/25 04:17:11;;;;;;;;;;;;;;;15.92;71.65;94128.50;4902432;29;19928;-83
2022/04/25 04:19:41;;;;;;;;;;;;;;;16.03;71.73;94129.88;4902092;29;19928;-82
2022/04/25 04:22:08;;;;;;;;;;;;;;;16.11;70.42;94122.66;4902326;29;19985;-83
2022/04/25 04:24:35;;;;;;;;;;;;;;;16.26;70.55;94137.72;4902192;29;20311;-83
2022/04/25 04:27:02;;;;;;;;;;;;;;;16.40;69.87;94131.59;4902107;29;19928;-83
2022/04/25 04:29:30;;;;;;;;;;;;;;;16.47;68.70;94127.19;4902593;29;19975;-83
2022/04/25 04:31:57;;;;;;;;;;;;;;;16.55;68.92;94124.47;4901957;29;19935;-83
2022/04/25 04:34:24;;;;;;;;;;;;;;;16.69;67.94;94115.69;4902064;29;19927;-82
2022/04/25 04:36:51;;;;;;;;;;;;;;;16.79;67.78;94125.19;4902081;29;19935;-83
2022/04/25 04:39:18;;;;;;;;;;;;;;;16.85;67.13;94130.56;4901704;29;20396;-83
2022/04/25 04:41:44;;;;;;;;;;;;;;;16.88;67.20;94129.34;4901796;29;19928;-82
2022/04/25 04:44:11;;;;;;;;;;;;;;;16.89;66.60;94131.81;4899789;29;19950;-82
2022/04/25 04:46:39;;;;;;;;;;;;;;;16.89;66.56;94131.00;4901736;29;20430;-83
2022/04/25 04:49:05;;;;;;;;;;;;;;;16.91;66.65;94129.81;4901412;29;20372;-82
2022/04/25 04:51:32;;;;;;;;;;;;;;;17.09;66.57;94124.09;4902016;29;19933;-83
2022/04/25 04:53:59;;;;;;;;;;;;;;;17.30;65.75;94126.72;4901520;29;19927;-82
2022/04/25 04:56:26;;;;;;;;;;;;;;;17.45;65.50;94131.16;4901222;29;19928;-82
2022/04/25 04:58:53;;;;;;;;;;;;;;;17.73;64.64;94128.56;4901529;29;19927;-82
2022/04/25 05:01:19;;;;;;;;;;;;;;;18.00;63.05;94130.41;4901839;29;19931;-83
2022/04/25 05:03:47;;;;;;;;;;;;;;;18.28;61.82;94130.38;4901128;29;20410;-82
2022/04/25 05:06:14;;;;;;;;;;;;;;;18.62;60.95;94134.88;4900646;29;19928;-83
2022/04/25 05:08:41;;;;;;;;;;;;;;;19.02;60.01;94141.16;4900925;29;19927;-82
2022/04/25 05:11:09;;;;;;;;;;;;;;;19.28;59.34;94137.75;4901476;29;19998;-82
2022/04/25 05:13:36;;;;;;;;;;;;;;;19.68;58.40;94148.50;4901577;29;19927;-83
2022/04/25 05:44:28;;;;;;;;;;;;;;;20.26;58.56;94172.66;4893078;29;19979;-83
2022/04/25 05:46:56;;;;;;;;;;;;;;;20.51;58.34;94180.81;4900742;29;19927;-82
2022/04/25 05:52:08;;;;;;;;;;;;;;;20.92;56.20;94178.66;4900670;29;19934;-81
2022/04/25 05:54:36;;;;;;;;;;;;;;;21.28;55.98;94183.47;4900651;29;19928;-81
2022/04/25 05:57:02;;;;;;;;;;;;;;;21.71;54.75;94179.34;4901457;29;19928;-81
2022/04/25 05:59:31;;;;;;;;;;;;;;;22.24;52.92;94180.56;4900633;29;20299;-81
2022/04/25 06:01:57;;;;;;;;;;;;;;;22.83;50.29;94187.22;4900075;29;19927;-81
2022/04/25 06:04:24;;;;;;;;;;;;;;;23.20;50.41;94187.25;4898494;29;19939;-82
2022/04/25 06:06:50;;;;;;;;;;;;;;;23.03;48.51;94183.53;4900020;29;20379;-81
2022/04/25 06:12:20;;;;;;;;;;;;;;;23.17;50.00;94190.38;4899924;29;20026;-82
2022/04/25 06:14:48;;;;;;;;;;;;;;;23.49;48.37;94178.41;4900151;29;19928;-82
2022/04/25 06:17:15;;;;;;;;;;;;;;;23.79;46.94;94173.06;4899888;29;19932;-83
2022/04/25 06:19:42;;;;;;;;;;;;;;;23.96;46.48;94162.50;4900150;29;19934;-82
2022/04/25 06:25:11;;;;;;;;;;;;;;;23.76;47.42;94156.66;4880849;29;19931;-81
2022/04/25 06:27:38;;;;;;;;;;;;;;;23.78;47.09;94159.91;4849549;29;19943;-81
2022/04/25 06:30:06;;;;;;;;;;;;;;;24.03;47.37;94155.19;4899730;29;19934;-82
2022/04/25 06:32:33;;;;;;;;;;;;;;;24.21;45.71;94161.50;4899949;29;19927;-81
2022/04/25 06:44:09;;;;;;;;;;;;;;;25.66;41.90;94156.03;4888395;29;20406;-80
2022/04/25 06:46:37;;;;;;;;;;;;;;;25.59;41.54;94150.00;4899950;29;19927;-82
2022/04/25 06:49:23;;;;;;;;;;;;;;;25.46;43.03;94155.69;4899267;29;19928;-79
2022/04/25 06:51:50;;;;;;;;;;;;;;;25.51;43.51;94158.44;4899562;29;19982;-82
2022/04/25 06:54:17;;;;;;;;;;;;;;;25.60;42.34;94159.69;4899554;29;19927;-81
2022/04/25 06:56:44;;;;;;;;;;;;;;;25.61;41.11;94159.44;4899363;29;20303;-82
2022/04/25 06:59:10;;;;;;;;;;;;;;;25.46;41.62;94169.09;4899417;29;20269;-80
2022/04/25 07:01:39;;;;;;;;;;;;;;;25.21;42.75;94169.41;4881981;29;19935;-79
2022/04/25 07:04:06;;;;;;;;;;;;;;;24.84;44.09;94169.66;4899338;29;19928;-81
2022/04/25 07:06:33;;;;;;;;;;;;;;;24.71;43.71;94165.38;4899318;29;19928;-81
2022/04/25 07:08:59;;;;;;;;;;;;;;;24.66;44.09;94167.13;4897450;29;20295;-81
2022/04/25 07:11:26;;;;;;;;;;;;;;;24.81;43.57;94158.59;4898096;29;19928;-82
2022/04/25 07:13:52;;;;;;;;;;;;;;;24.89;43.06;94166.31;4897976;29;19928;-81
2022/04/25 07:16:19;;;;;;;;;;;;;;;24.77;42.71;94155.56;4897953;29;19954;-82
2022/04/25 07:18:47;;;;;;;;;;;;;;;24.94;42.36;94159.16;4897629;29;19934;-82
2022/04/25 07:29:23;;;;;;;;;;;;;;;24.85;42.63;94159.75;4897647;29;20395;-81
2022/04/25 07:31:51;;;;;;;;;;;;;;;24.68;42.90;94155.13;4897238;29;19975;-81
2022/04/25 07:34:19;;;;;;;;;;;;;;;24.86;42.79;94156.00;4897518;29;19935;-82
2022/04/25 07:36:51;;;;;;;;;;;;;;;25.10;42.14;94146.91;4910896;29;19927;-82
2022/04/25 07:39:17;;;;;;;;;;;;;;;25.44;41.39;94139.75;4897297;29;19934;-82
2022/04/25 07:41:44;;;;;;;;;;;;;;;25.54;41.47;94136.47;4896957;29;19928;-81
2022/04/25 07:44:11;;;;;;;;;;;;;;;25.87;39.60;94131.19;4897185;29;19928;-82
2022/04/25 07:46:40;;;;;;;;;;;;;;;26.22;38.98;94133.63;4897716;29;19936;-82
2022/04/25 07:49:07;;;;;;;;;;;;;;;26.54;38.13;94141.97;4897487;29;20110;-82
2022/04/25 07:51:35;;;;;;;;;;;;;;;26.60;37.68;94139.34;4897091;29;19975;-82
2022/04/25 07:54:01;;;;;;;;;;;;;;;26.76;38.79;94138.50;4897284;29;19932;-82
2022/04/25 07:56:28;;;;;;;;;;;;;;;27.05;37.42;94131.09;4897094;29;19928;-82
2022/04/25 07:58:55;;;;;;;;;;;;;;;26.97;37.90;94129.63;4897276;29;20387;-82
2022/04/25 08:01:21;;;;;;;;;;;;;;;26.85;37.35;94131.63;4897386;29;19931;-82
2022/04/25 08:03:48;;;;;;;;;;;;;;;26.65;37.38;94125.97;4897554;29;19927;-82
2022/04/25 08:06:15;;;;;;;;;;;;;;;26.61;36.43;94124.84;4897297;29;19934;-82
2022/04/25 08:08:43;;;;;;;;;;;;;;;26.48;38.61;94126.00;4897239;29;20298;-82
2022/04/25 08:11:11;;;;;;;;;;;;;;;26.38;38.74;94128.53;4897264;29;19932;-82
2022/04/25 08:19:05;;;;;;;;;;;;;;;26.04;39.18;94120.47;4897105;29;19939;-82
2022/04/25 08:21:32;;;;;;;;;;;;;;;26.21;38.83;94109.69;4897362;29;19927;-82
2022/04/25 08:24:02;;;;;;;;;;;;;;;26.45;38.46;94113.03;4896905;29;19927;-82
2022/04/25 08:26:28;;;;;;;;;;;;;;;26.34;37.90;94103.19;4897194;29;19972;-82
2022/04/25 08:28:55;;;;;;;;;;;;;;;26.08;38.29;94110.03;4896715;29;20393;-81
2022/04/25 08:31:22;;;;;;;;;;;;;;;25.91;39.36;94102.75;4897020;29;20388;-82
2022/04/25 08:33:48;;;;;;;;;;;;;;;25.72;38.84;94106.72;4896919;29;19927;-81
2022/04/25 08:36:16;;;;;;;;;;;;;;;25.35;40.00;94102.78;4897002;29;20399;-82
2022/04/25 08:38:43;;;;;;;;;;;;;;;25.52;37.76;94106.34;4896756;29;19984;-82
2022/04/25 08:41:12;;;;;;;;;;;;;;;25.52;37.98;94099.09;4879281;29;19935;-82
2022/04/25 08:43:39;;;;;;;;;;;;;;;25.62;38.01;94096.59;4897148;29;20287;-82
2022/04/25 08:46:07;;;;;;;;;;;;;;;26.03;34.12;94086.56;4897063;29;19934;-81
2022/04/25 08:48:34;;;;;;;;;;;;;;;26.32;32.66;94089.97;4896918;29;19934;-82
2022/04/25 08:51:01;;;;;;;;;;;;;;;26.37;35.16;94095.44;4896651;29;20352;-82
2022/04/25 08:53:28;;;;;;;;;;;;;;;26.57;36.25;94091.38;4900407;29;19935;-82
2022/04/25 08:55:55;;;;;;;;;;;;;;;26.64;37.81;94087.47;4900332;29;19928;-82
2022/04/25 08:58:24;;;;;;;;;;;;;;;26.66;34.49;94084.53;4899890;29;20010;-82
2022/04/25 09:00:51;;;;;;;;;;;;;;;26.91;32.46;94081.34;4900244;29;19927;-82
2022/04/25 09:03:18;;;;;;;;;;;;;;;27.10;31.69;94086.19;4900313;29;20022;-82
2022/04/25 09:05:46;;;;;;;;;;;;;;;27.15;29.57;94080.84;4900085;29;20456;-82
2022/04/25 09:08:12;;;;;;;;;;;;;;;27.35;28.36;94084.84;4900262;29;19928;-82
2022/04/25 09:10:40;;;;;;;;;;;;;;;27.39;26.31;94072.50;4899709;29;19927;-80
2022/04/25 09:13:07;;;;;;;;;;;;;;;27.60;26.43;94077.03;4900083;29;19927;-82
2022/04/25 09:15:36;;;;;;;;;;;;;;;27.73;25.67;94070.41;4899752;29;19934;-82
2022/04/25 09:18:03;;;;;;;;;;;;;;;27.67;25.66;94066.06;4913355;29;19936;-82
2022/04/25 09:20:29;;;;;;;;;;;;;;;27.63;26.63;94067.63;4900009;29;19927;-82
2022/04/25 09:22:56;;;;;;;;;;;;;;;27.65;27.51;94054.72;4899825;29;19928;-82
2022/04/25 09:25:23;;;;;;;;;;;;;;;27.48;27.05;94057.50;4899820;29;19939;-83
2022/04/25 09:28:07;;;;;;;;;;;;;;;27.31;26.98;94056.78;4899577;29;19931;-82
2022/04/25 09:30:33;;;;;;;;;;;;;;;27.34;27.04;94056.28;4899385;29;19927;-83
2022/04/25 09:33:01;;;;;;;;;;;;;;;27.38;26.97;94054.69;4899699;29;19928;-82
2022/04/25 09:35:29;;;;;;;;;;;;;;;27.54;27.56;94053.78;4899227;29;20284;-83
2022/04/25 09:37:57;;;;;;;;;;;;;;;27.62;26.68;94058.75;4899367;29;19928;-83
2022/04/25 09:40:24;;;;;;;;;;;;;;;27.50;26.50;94051.88;4899400;29;20314;-82
2022/04/25 09:43:03;;;;;;;;;;;;;;;27.49;25.69;94056.44;4881763;29;20395;-82
2022/04/25 09:45:30;;;;;;;;;;;;;;;27.44;25.05;94053.66;4866808;29;19931;-83
2022/04/25 09:47:57;;;;;;;;;;;;;;;27.57;24.82;94058.66;4900783;29;19927;-84
2022/04/25 09:50:27;;;;;;;;;;;;;;;27.65;24.88;94050.13;4900664;29;20280;-80
2022/04/25 09:52:55;;;;;;;;;;;;;;;27.64;24.84;94048.50;4900638;29;19967;-80
2022/04/25 09:55:22;;;;;;;;;;;;;;;27.63;24.63;94037.97;4900282;29;19927;-80
2022/04/25 09:57:50;;;;;;;;;;;;;;;27.59;25.75;94044.94;4900240;29;19927;-81
2022/04/25 10:00:30;;;;;;;;;;;;;;;27.58;24.79;94046.00;4900934;29;20018;-80
2022/04/25 10:02:56;;;;;;;;;;;;;;;27.39;24.91;94045.53;4900368;29;19928;-78
2022/04/25 10:05:23;;;;;;;;;;;;;;;27.26;26.79;94045.97;4900051;29;19935;-80
2022/04/25 10:07:53;;;;;;;;;;;;;;;27.20;25.25;94036.22;4900296;29;19928;-81
2022/04/25 10:10:20;;;;;;;;;;;;;;;27.31;25.55;94038.75;4882909;29;19928;-79
2022/04/25 10:12:47;;;;;;;;;;;;;;;27.37;24.84;94031.50;4900500;29;19934;-80
2022/04/25 10:15:13;;;;;;;;;;;;;;;27.38;24.38;94038.53;4900783;29;20245;-80
2022/04/25 10:17:40;;;;;;;;;;;;;;;27.23;25.52;94033.00;4900017;29;19927;-78
2022/04/25 10:20:08;;;;;;;;;;;;;;;27.14;26.69;94044.22;4899887;29;20014;-79
2022/04/25 10:22:35;;;;;;;;;;;;;;;27.09;25.74;94041.47;4882849;29;19928;-79
2022/04/25 10:25:04;;;;;;;;;;;;;;;27.00;24.78;94036.78;4899666;29;19928;-79
2022/04/25 10:27:32;;;;;;;;;;;;;;;26.98;25.62;94041.59;4900099;29;19932;-80
2022/04/25 10:30:02;;;;;;;;;;;;;;;27.07;24.82;94037.41;4899582;29;19934;-79
2022/04/25 10:32:30;;;;;;;;;;;;;;;27.04;26.15;94033.34;4897217;29;20452;-80
2022/04/25 10:53:59;;;;;;;;;;;;;;;25.94;25.69;94042.31;4888708;29;20042;-79
2022/04/25 10:56:26;;;;;;;;;;;;;;;25.95;24.83;94041.25;4899273;29;19932;-79
2022/04/25 10:59:07;;;;;;;;;;;;;;;26.07;26.20;94050.06;4899632;29;19999;-80
2022/04/25 11:01:34;;;;;;;;;;;;;;;26.29;25.08;94047.38;4900073;29;20034;-79
2022/04/25 11:04:04;;;;;;;;;;;;;;;26.53;24.53;94038.06;4899025;29;19928;-80
2022/04/25 11:06:31;;;;;;;;;;;;;;;26.75;23.40;94039.97;4899228;29;19944;-80
2022/04/25 11:08:59;;;;;;;;;;;;;;;26.67;22.67;94040.41;4898956;29;19927;-79
2022/04/25 11:11:25;;;;;;;;;;;;;;;26.56;23.76;94044.81;4899047;29;19928;-79
2022/04/25 11:14:25;;;;;;;;;;;;;;;26.65;24.24;94043.34;4881844;29;19934;-80
2022/04/25 11:17:12;;;;;;;;;;;;;;;26.71;23.93;94045.03;4881175;29;19931;-79
2022/04/25 11:19:57;;;;;;;;;;;;;;;26.72;23.86;94043.97;4899413;29;20316;-79
2022/04/25 11:22:31;;;;;;;;;;;;;;;26.75;23.61;94043.47;4899644;29;19938;-80
2022/04/25 11:25:20;;;;;;;;;;;;;;;26.72;23.61;94045.84;4898951;29;19935;-80
2022/04/25 11:28:02;;;;;;;;;;;;;;;26.83;23.59;94044.91;4899703;29;19983;-79
2022/04/25 11:30:29;;;;;;;;;;;;;;;26.79;23.59;94046.47;4899397;29;19934;-79
2022/04/25 11:33:01;;;;;;;;;;;;;;;26.69;24.08;94049.03;4898974;29;20382;-80
2022/04/25 11:35:28;;;;;;;;;;;;;;;26.72;25.28;94053.91;4898721;29;20311;-79
2022/04/25 11:37:56;;;;;;;;;;;;;;;26.73;24.85;94044.78;4898645;29;19938;-80
2022/04/25 11:40:26;;;;;;;;;;;;;;;26.71;24.64;94036.97;4898663;29;19932;-79
2022/04/25 11:42:54;;;;;;;;;;;;;;;26.65;24.33;94046.03;4898771;29;19927;-80
2022/04/25 11:51:26;;;;;;;;;;;;;;;26.21;24.86;94045.94;4897729;29;20366;-79
2022/04/25 11:53:53;;;;;;;;;;;;;;;26.16;25.06;94042.38;4899013;29;19975;-78
2022/04/25 11:56:22;;;;;;;;;;;;;;;25.99;24.70;94044.25;4898606;29;19978;-78
2022/04/25 11:58:49;;;;;;;;;;;;;;;26.02;24.47;94038.38;4898916;29;19979;-78
2022/04/25 12:01:31;;;;;;;;;;;;;;;25.99;24.79;94042.38;4899284;29;19927;-78
2022/04/25 12:04:13;;;;;;;;;;;;;;;25.98;25.17;94046.13;4896890;29;19934;-79
2022/04/25 12:06:39;;;;;;;;;;;;;;;26.00;24.39;94037.81;4898973;29;19927;-77
2022/04/25 12:17:21;;;;;;;;;;;;;;;26.42;23.79;94030.94;4859466;29;19939;-79
2022/04/25 12:19:57;;;;;;;;;;;;;;;26.51;22.88;94025.94;4843742;29;20498;-78
2022/04/25 12:22:24;;;;;;;;;;;;;;;26.66;23.50;94030.69;4858950;29;19939;-78
2022/04/25 12:25:10;;;;;;;;;;;;;;;26.60;23.20;94021.75;4859101;29;19935;-78
2022/04/25 12:27:38;;;;;;;;;;;;;;;26.50;22.49;94019.72;4815557;29;19935;-77
2022/04/25 12:30:06;;;;;;;;;;;;;;;26.43;22.15;94016.41;4862580;29;19951;-78
2022/04/25 12:32:33;;;;;;;;;;;;;;;26.29;22.23;94019.66;4862543;29;20011;-78
2022/04/25 12:34:59;;;;;;;;;;;;;;;26.15;21.90;94016.53;4862500;29;20388;-78
2022/04/25 12:37:26;;;;;;;;;;;;;;;26.00;21.83;94017.13;4862815;29;20024;-78
2022/04/25 12:40:02;;;;;;;;;;;;;;;25.88;21.33;94019.91;4862834;29;20297;-79
2022/04/25 12:42:43;;;;;;;;;;;;;;;25.79;22.35;94024.06;4862681;29;19981;-78
2022/04/25 12:45:11;;;;;;;;;;;;;;;25.59;21.29;94016.47;4862477;29;19940;-79
2022/04/25 12:47:39;;;;;;;;;;;;;;;25.59;21.95;94021.03;4862751;29;19928;-78
2022/04/25 12:50:06;;;;;;;;;;;;;;;25.64;21.94;94010.34;4898953;29;20288;-78
2022/04/25 12:52:45;;;;;;;;;;;;;;;25.76;22.63;94016.50;4899772;29;19927;-77
2022/04/25 12:55:12;;;;;;;;;;;;;;;25.84;23.15;94015.28;4901625;29;19987;-78
2022/04/25 12:57:38;;;;;;;;;;;;;;;25.81;23.85;94015.75;4900149;29;19934;-85
2022/04/25 13:00:06;;;;;;;;;;;;;;;25.79;21.67;94009.81;4897238;29;19935;-79
2022/04/25 13:02:35;;;;;;;;;;;;;;;25.81;22.15;94011.19;4882907;29;19928;-78
2022/04/25 13:05:03;;;;;;;;;;;;;;;25.80;22.30;94009.56;4882757;29;19940;-78
2022/04/25 13:07:31;;;;;;;;;;;;;;;25.60;22.73;94010.03;4882854;29;19928;-79
2022/04/25 13:09:58;;;;;;;;;;;;;;;25.51;22.39;94014.19;4882934;29;20292;-78
2022/04/25 13:12:25;;;;;;;;;;;;;;;25.55;24.21;94009.94;4882509;29;19928;-78
2022/04/25 13:14:52;;;;;;;;;;;;;;;25.60;22.73;94006.53;4882541;29;19934;-78
2022/04/25 13:17:19;;;;;;;;;;;;;;;25.52;23.85;94009.63;4882758;29;20277;-80
2022/04/25 13:19:47;;;;;;;;;;;;;;;25.36;23.49;94015.78;4882914;29;19971;-79
2022/04/25 13:22:13;;;;;;;;;;;;;;;25.33;23.64;94009.03;4882786;29;19934;-78
2022/04/25 13:24:40;;;;;;;;;;;;;;;25.32;23.78;94010.09;4882395;29;19974;-77
2022/04/25 13:27:07;;;;;;;;;;;;;;;25.28;24.65;94015.13;4882529;29;19928;-78
2022/04/25 13:29:34;;;;;;;;;;;;;;;25.25;24.40;94010.25;4882019;29;19928;-78
2022/04/25 13:32:00;;;;;;;;;;;;;;;25.38;23.58;94008.31;4882441;29;19935;-78
2022/04/25 13:34:27;;;;;;;;;;;;;;;25.51;23.86;94002.63;4884358;29;19928;-79
2022/04/25 13:36:56;;;;;;;;;;;;;;;25.72;22.96;94009.16;4900092;29;20323;-78
2022/04/25 13:39:22;;;;;;;;;;;;;;;25.86;21.86;93995.16;4899911;29;20303;-78
2022/04/25 13:41:49;;;;;;;;;;;;;;;26.08;22.52;94002.47;4901299;29;19934;-78
2022/04/25 13:44:15;;;;;;;;;;;;;;;26.24;22.22;93990.84;4900640;29;19927;-78
2022/04/25 13:46:42;;;;;;;;;;;;;;;26.39;22.39;94001.84;4900477;29;19927;-78
2022/04/25 13:49:09;;;;;;;;;;;;;;;26.48;22.60;94005.72;4901155;29;19927;-88
2022/04/25 13:51:36;;;;;;;;;;;;;;;26.45;21.71;94008.09;4887042;29;20306;-89
2022/04/25 13:54:04;;;;;;;;;;;;;;;26.32;22.42;94013.81;4882828;29;20316;-82
2022/04/25 13:56:30;;;;;;;;;;;;;;;26.13;21.78;94018.66;4882031;29;19928;-84
2022/04/25 13:58:57;;;;;;;;;;;;;;;25.79;23.02;94016.00;4881811;29;19928;-83
2022/04/25 14:01:23;;;;;;;;;;;;;;;25.57;24.87;94017.75;4882010;29;19932;-83
2022/04/25 14:03:52;;;;;;;;;;;;;;;25.36;24.68;94013.09;4864802;29;19928;-80
2022/04/25 14:18:37;;;;;;;;;;;;;;;25.20;25.43;94022.78;4881796;29;19971;-80
2022/04/25 14:21:06;;;;;;;;;;;;;;;25.31;25.94;94028.06;4881298;29;19928;-85
2022/04/25 14:23:33;;;;;;;;;;;;;;;25.39;26.86;94029.53;4881140;29;19928;-80
2022/04/25 14:26:01;;;;;;;;;;;;;;;25.42;28.32;94029.06;4881305;29;19927;-79
2022/04/25 14:28:28;;;;;;;;;;;;;;;25.35;26.38;94030.28;4882082;29;20279;-81
2022/04/25 14:30:54;;;;;;;;;;;;;;;25.24;25.40;94026.59;4881138;29;19928;-79
2022/04/25 14:33:22;;;;;;;;;;;;;;;25.13;25.75;94022.91;4881241;29;19928;-80
2022/04/25 14:35:50;;;;;;;;;;;;;;;24.95;26.04;94028.44;4881468;29;19928;-79
2022/04/25 14:38:22;;;;;;;;;;;;;;;24.75;26.61;94026.19;4881496;29;19935;-79
2022/04/25 14:40:49;;;;;;;;;;;;;;;24.59;29.59;94026.94;4880992;29;20283;-79
2022/04/25 14:43:15;;;;;;;;;;;;;;;24.49;26.84;94030.22;4880787;29;19928;-79
2022/04/25 14:45:42;;;;;;;;;;;;;;;24.44;27.70;94019.38;4881188;29;20383;-81